Accueil
METAR-TAF:

METAR-TAF

Aéroports :

Beauvais, France

Aéroport de Beauvais-Tillé

latitude: 49-28N, longitude: 002-07E, altitude: 109 m

Observation

Le bulletin a été fait il y a 27 minutes, à 06:30 UTC
Vent 9 kt de ouest/sud-ouest
Température 17°C
Humidité 72%
Pression 1018 hPa
Visibilité 10 km ou plus
Ciel couvert à une hauteur de 2400 ft

METAR: LFOB 230630Z AUTO 25009KT 9999 OVC024 17/12 Q1018 TEMPO BKN012

Heure: 08:57 (06:57 UTC)

Prévision

Le bulletin a été fait il y a 1 heure et 57 minutes, à 05:00 UTC
Prévision valable du 23 à 06 UTC au 24 à 06 UTC
Vent 8 kt de ouest
Visibilité 10 km ou plus
Nuages fragmentés à une hauteur de 2000 ft
Temporairement
du 23 à 06 UTC au 23 à 08 UTC
Nuages fragmentés à une hauteur de 1200 ft
Evoluant progressivement
du 24 à 03 UTC au 24 à 05 UTC
Nuages fragmentés à une hauteur de 800 ft

TAF: LFOB 230500Z 2306/2406 27008KT 9999 BKN020 TEMPO 2306/2308 BKN012 BECMG 2403/2405 BKN008

Observations et prévisions météorologiques de plus de 4000 aéroports (messages METAR et TAF).

Les stations disponibles sont représentées par des disques jaunes et rouges sur la carte.

Passer la souris dessus pour voir le nom de la station.

Cliquer dessus pour voir les observations et prévisions météorologiques.

Pour changer de carte: cliquez sur les boutons verts avec une croix noire pour zoomer, sur le bouton vert avec un tiret pour effectuer un zoom arrière, ou sur les flèches vertes pour les cartes adjacentes.


METAR-TAF: